Time;durP1;ratioP1;P1;durP2;ratioP2;P2;SDS_P1;SDS_P2;PMS_P1;PMS_P2;Temp;Humidity;BMP_temperature;BMP_pressure;BME280_temperature;BME280_humidity;BME280_pressure;Samples;Min_cycle;Max_cycle;Signal;HPM_P1;HPM_P2
2023/05/22 00:01:05;;;;;;;9.67;8.47;;;19.30;89.50;;;;;;5033365;28;20477;-66
2023/05/22 00:03:32;;;;;;;10.60;9.10;;;19.30;89.70;;;;;;5033806;28;20910;-67
2023/05/22 00:05:59;;;;;;;10.43;8.87;;;19.30;90.00;;;;;;5034771;28;20454;-67
2023/05/22 00:08:26;;;;;;;11.53;10.33;;;19.30;90.00;;;;;;5036149;28;20463;-67
2023/05/22 00:10:53;;;;;;;11.77;10.60;;;19.20;90.10;;;;;;5035738;28;20519;-67
2023/05/22 00:13:20;;;;;;;10.10;9.30;;;19.20;90.30;;;;;;5038012;28;20445;-65
2023/05/22 00:15:47;;;;;;;11.30;10.30;;;19.20;90.40;;;;;;5037215;28;20468;-66
2023/05/22 00:18:15;;;;;;;11.30;10.13;;;19.10;90.50;;;;;;5036496;28;20444;-64
2023/05/22 00:20:45;;;;;;;10.60;9.60;;;19.10;90.50;;;;;;5036078;28;20475;-65
2023/05/22 00:23:12;;;;;;;13.60;9.50;;;19.10;90.90;;;;;;5035950;28;20452;-65
2023/05/22 00:25:39;;;;;;;11.47;10.33;;;19.10;91.00;;;;;;5036300;28;20445;-64
2023/05/22 00:28:06;;;;;;;10.03;9.03;;;19.10;91.20;;;;;;5040423;28;20454;-65
2023/05/22 00:30:33;;;;;;;10.07;9.00;;;19.10;91.40;;;;;;5040699;28;20472;-65
2023/05/22 00:32:59;;;;;;;11.23;10.10;;;19.10;91.60;;;;;;5040258;28;20449;-64
2023/05/22 00:35:30;;;;;;;10.00;9.10;;;19.00;91.60;;;;;;5040246;28;20536;-67
2023/05/22 00:37:57;;;;;;;11.30;10.20;;;19.00;91.80;;;;;;5037278;28;20475;-66
2023/05/22 00:40:23;;;;;;;10.53;9.37;;;19.00;92.10;;;;;;5036814;28;20858;-67
2023/05/22 00:42:50;;;;;;;9.03;8.23;;;19.00;92.20;;;;;;5037327;28;20455;-65
2023/05/22 00:45:17;;;;;;;10.47;9.47;;;19.00;92.40;;;;;;5037122;28;20451;-64
2023/05/22 00:47:45;;;;;;;9.83;8.93;;;18.90;92.60;;;;;;5036956;28;20444;-65
2023/05/22 00:50:12;;;;;;;10.60;9.60;;;18.90;92.80;;;;;;5037197;28;20511;-64
2023/05/22 00:52:42;;;;;;;10.40;9.40;;;18.90;92.90;;;;;;5036783;28;20456;-65
2023/05/22 00:55:10;;;;;;;10.37;9.37;;;18.90;93.00;;;;;;5038430;28;20791;-64
2023/05/22 00:57:40;;;;;;;10.60;9.60;;;18.90;93.30;;;;;;5038366;28;20472;-65
2023/05/22 01:00:09;;;;;;;10.50;9.47;;;18.80;93.50;;;;;;5040269;28;20452;-65
2023/05/22 01:02:36;;;;;;;10.77;9.63;;;18.80;93.60;;;;;;5040230;28;20914;-65
2023/05/22 01:05:05;;;;;;;10.13;9.23;;;18.80;93.60;;;;;;5040218;28;20453;-65
2023/05/22 01:07:33;;;;;;;10.00;9.10;;;18.80;93.80;;;;;;5041402;28;20444;-65
2023/05/22 01:10:01;;;;;;;11.33;9.20;;;18.70;93.90;;;;;;5039132;28;20535;-63
2023/05/22 01:12:33;;;;;;;10.43;9.30;;;18.70;94.10;;;;;;5037741;28;20461;-65
2023/05/22 01:15:10;;;;;;;10.60;9.60;;;18.70;94.30;;;;;;5037074;28;20442;-64
2023/05/22 01:17:51;;;;;;;10.10;9.20;;;18.70;94.40;;;;;;5036297;28;20483;-64
2023/05/22 01:20:25;;;;;;;10.83;9.83;;;18.60;94.50;;;;;;5036279;28;20432;-64
2023/05/22 01:23:27;;;;;;;11.37;10.17;;;18.60;94.50;;;;;;5036515;28;20780;-65
2023/05/22 01:26:23;;;;;;;10.53;9.23;;;18.60;94.70;;;;;;5036115;28;20424;-64
2023/05/22 01:29:08;;;;;;;9.97;9.07;;;18.50;94.70;;;;;;5018800;28;20460;-64
2023/05/22 01:31:40;;;;;;;9.97;9.07;;;18.50;94.90;;;;;;5035996;28;20472;-64
2023/05/22 01:34:11;;;;;;;9.60;8.80;;;18.50;95.00;;;;;;5035842;28;20433;-64
2023/05/22 01:36:39;;;;;;;10.00;8.50;;;18.50;95.00;;;;;;5035774;28;20477;-64
2023/05/22 01:39:07;;;;;;;12.30;9.90;;;18.40;95.00;;;;;;5034929;28;20460;-64
2023/05/22 01:41:34;;;;;;;10.27;9.47;;;18.40;95.20;;;;;;5035737;28;20471;-64
2023/05/22 01:44:01;;;;;;;10.73;9.63;;;18.40;95.30;;;;;;5035768;28;20449;-65
2023/05/22 01:46:29;;;;;;;10.37;9.20;;;18.30;95.30;;;;;;5036039;28;20445;-63
2023/05/22 01:48:57;;;;;;;9.60;8.70;;;18.30;95.30;;;;;;5035684;28;20451;-65
2023/05/22 01:51:33;;;;;;;11.27;8.50;;;18.30;95.40;;;;;;5035390;28;20492;-63
2023/05/22 01:54:08;;;;;;;10.07;9.07;;;18.20;95.50;;;;;;5035385;28;20433;-64
2023/05/22 01:56:39;;;;;;;9.30;8.50;;;18.20;95.70;;;;;;5035704;28;20482;-64
2023/05/22 01:59:14;;;;;;;10.13;9.13;;;18.20;95.80;;;;;;5035133;28;20429;-64
2023/05/22 02:01:42;;;;;;;9.37;8.57;;;18.10;95.90;;;;;;5035272;28;20515;-64
2023/05/22 02:04:13;;;;;;;13.80;8.77;;;18.00;96.00;;;;;;5035353;28;20812;-64
2023/05/22 02:06:41;;;;;;;10.50;9.60;;;18.00;96.10;;;;;;5035283;28;20469;-64
2023/05/22 02:09:08;;;;;;;9.10;8.30;;;18.00;96.30;;;;;;5035308;28;20451;-63
2023/05/22 02:11:39;;;;;;;9.77;8.20;;;17.90;96.50;;;;;;5035054;28;20461;-65
2023/05/22 02:14:08;;;;;;;9.57;8.73;;;17.90;96.70;;;;;;5035096;28;20460;-65
2023/05/22 02:16:36;;;;;;;10.03;8.90;;;17.80;96.80;;;;;;5035015;28;20488;-66
2023/05/22 02:19:05;;;;;;;9.40;8.47;;;17.80;97.00;;;;;;5035115;28;20445;-64
2023/05/22 02:21:34;;;;;;;9.33;8.40;;;17.70;97.30;;;;;;5035035;28;20472;-64
2023/05/22 02:24:02;;;;;;;11.20;8.43;;;17.70;97.50;;;;;;5034611;28;20449;-65
2023/05/22 02:26:29;;;;;;;8.93;8.10;;;17.60;97.70;;;;;;5034683;28;20943;-65
2023/05/22 02:28:55;;;;;;;13.53;8.50;;;17.50;97.90;;;;;;5035069;28;20445;-64
2023/05/22 02:31:22;;;;;;;9.67;8.57;;;17.50;98.00;;;;;;5034555;28;20465;-64
2023/05/22 02:33:49;;;;;;;10.00;9.10;;;17.50;98.30;;;;;;5034374;28;20464;-65
2023/05/22 02:36:16;;;;;;;10.50;9.40;;;17.40;98.50;;;;;;5034091;28;20444;-66
2023/05/22 02:38:44;;;;;;;10.00;9.00;;;17.40;98.80;;;;;;5034033;28;20484;-66
2023/05/22 02:41:11;;;;;;;9.60;8.70;;;17.30;99.00;;;;;;5034141;28;20473;-66
2023/05/22 02:43:38;;;;;;;9.87;8.97;;;17.30;99.10;;;;;;5034358;28;20453;-65
2023/05/22 02:46:05;;;;;;;9.30;8.47;;;17.20;99.20;;;;;;5034217;28;20477;-65
2023/05/22 02:48:31;;;;;;;8.87;7.97;;;17.20;99.30;;;;;;5034323;28;20472;-65
2023/05/22 02:50:58;;;;;;;12.23;9.43;;;17.20;99.50;;;;;;5033160;28;20477;-65
2023/05/22 02:53:25;;;;;;;10.37;8.80;;;17.10;99.60;;;;;;5034301;28;20449;-64
2023/05/22 02:55:57;;;;;;;10.00;8.60;;;17.10;99.80;;;;;;5034166;28;20551;-65
2023/05/22 02:58:24;;;;;;;9.23;8.40;;;17.10;99.90;;;;;;5034028;28;20471;-64
2023/05/22 03:00:51;;;;;;;9.50;8.60;;;17.00;99.90;;;;;;5034577;28;20515;-64
2023/05/22 03:03:18;;;;;;;10.97;9.97;;;17.00;99.90;;;;;;5034192;28;20448;-64
2023/05/22 03:05:45;;;;;;;11.20;9.70;;;17.00;99.90;;;;;;5034069;28;20449;-64
2023/05/22 03:08:14;;;;;;;12.00;8.63;;;17.00;99.90;;;;;;5033814;28;20488;-64
2023/05/22 03:10:47;;;;;;;9.77;8.90;;;16.90;99.90;;;;;;5033655;28;20469;-66
2023/05/22 03:13:15;;;;;;;12.37;9.80;;;16.90;99.90;;;;;;5033776;28;20433;-64
2023/05/22 03:15:42;;;;;;;11.33;8.83;;;16.90;99.90;;;;;;5034102;28;20546;-65
2023/05/22 03:18:08;;;;;;;9.63;8.63;;;16.90;99.90;;;;;;5033702;28;20484;-65
2023/05/22 03:20:35;;;;;;;9.00;8.20;;;16.90;99.90;;;;;;5033410;28;21011;-65
2023/05/22 03:23:02;;;;;;;8.53;7.63;;;16.90;99.90;;;;;;5033681;28;20460;-65
2023/05/22 03:25:31;;;;;;;9.47;8.57;;;16.90;99.90;;;;;;5033626;28;20512;-66
2023/05/22 03:27:58;;;;;;;11.17;8.20;;;16.80;99.90;;;;;;5033642;28;20449;-65
2023/05/22 03:30:26;;;;;;;10.00;8.93;;;16.80;99.90;;;;;;5033522;28;20465;-65
2023/05/22 03:32:53;;;;;;;9.57;8.37;;;16.80;99.90;;;;;;5033747;28;20472;-64
2023/05/22 03:35:20;;;;;;;8.70;7.90;;;16.80;99.90;;;;;;5033201;28;20935;-66
2023/05/22 03:37:46;;;;;;;9.67;8.63;;;16.80;99.90;;;;;;5033389;28;20477;-65
2023/05/22 03:40:13;;;;;;;10.67;9.10;;;16.80;99.90;;;;;;5033353;28;20455;-66
2023/05/22 03:42:40;;;;;;;9.00;8.10;;;16.80;99.90;;;;;;5033110;28;20831;-66
2023/05/22 03:45:08;;;;;;;9.83;8.70;;;16.90;99.90;;;;;;5033410;28;20543;-66
2023/05/22 03:47:36;;;;;;;12.37;8.27;;;16.90;99.90;;;;;;5033492;28;20447;-65
2023/05/22 03:50:05;;;;;;;9.33;8.47;;;16.90;99.90;;;;;;5033203;28;20453;-66
2023/05/22 03:52:31;;;;;;;9.33;8.53;;;16.90;99.90;;;;;;5033420;28;20462;-66
2023/05/22 03:54:58;;;;;;;10.33;9.33;;;16.90;99.90;;;;;;5033648;28;20548;-66
2023/05/22 03:57:25;;;;;;;8.70;7.90;;;16.90;99.90;;;;;;5033341;28;20477;-64
2023/05/22 03:59:52;;;;;;;8.77;7.97;;;16.90;99.90;;;;;;5034842;28;20449;-65
2023/05/22 04:02:19;;;;;;;9.10;8.20;;;16.90;99.90;;;;;;5033290;28;20845;-66
2023/05/22 04:04:48;;;;;;;9.17;8.43;;;17.00;99.90;;;;;;5033656;28;20503;-66
2023/05/22 04:07:17;;;;;;;9.07;8.27;;;17.00;99.90;;;;;;5033342;28;20884;-66
2023/05/22 04:11:45;;;;;;;7.87;7.17;;;17.10;99.60;;;;;;5132601;27;20674;-65
2023/05/22 04:14:12;;;;;;;9.73;8.73;;;17.10;99.60;;;;;;5132915;28;20484;-66
2023/05/22 04:16:39;;;;;;;10.50;9.40;;;17.10;99.30;;;;;;5134604;28;20448;-66
2023/05/22 04:19:08;;;;;;;9.03;8.20;;;17.10;99.20;;;;;;5132082;28;20440;-65
2023/05/22 04:21:35;;;;;;;8.30;7.60;;;17.20;99.10;;;;;;5133451;27;20464;-66
2023/05/22 04:24:05;;;;;;;10.00;9.07;;;17.20;99.00;;;;;;5135467;27;20440;-65
2023/05/22 04:26:32;;;;;;;8.20;7.50;;;17.20;98.80;;;;;;5135740;28;20520;-64
2023/05/22 04:29:01;;;;;;;9.23;8.43;;;17.30;98.60;;;;;;5136200;28;20464;-65
2023/05/22 04:31:27;;;;;;;9.00;8.07;;;17.30;98.40;;;;;;5135439;27;20595;-64
2023/05/22 04:33:54;;;;;;;9.90;8.10;;;17.40;98.10;;;;;;5134970;28;20445;-64
2023/05/22 04:36:24;;;;;;;9.33;8.33;;;17.40;97.80;;;;;;5133683;28;20474;-65
2023/05/22 04:38:51;;;;;;;9.23;8.40;;;17.50;97.60;;;;;;5133414;28;20445;-64
2023/05/22 04:41:18;;;;;;;8.40;7.43;;;17.60;97.20;;;;;;5132902;27;20461;-65
2023/05/22 04:43:47;;;;;;;9.60;8.70;;;17.70;96.80;;;;;;5132420;28;20440;-65
2023/05/22 04:46:15;;;;;;;8.67;7.87;;;17.70;96.40;;;;;;5130585;28;20539;-65
2023/05/22 04:48:42;;;;;;;8.77;7.90;;;17.80;96.00;;;;;;5130679;28;20498;-64
2023/05/22 04:51:09;;;;;;;8.70;7.90;;;17.90;95.60;;;;;;5130074;27;20855;-64
2023/05/22 04:53:37;;;;;;;8.57;7.77;;;17.90;95.10;;;;;;5130732;28;20459;-65
2023/05/22 04:56:04;;;;;;;11.50;7.73;;;18.00;94.80;;;;;;5130534;28;20444;-65
2023/05/22 04:58:31;;;;;;;9.73;8.83;;;18.00;94.40;;;;;;5130310;27;20451;-65
2023/05/22 05:00:58;;;;;;;11.23;8.30;;;18.10;94.00;;;;;;5129711;27;20977;-64
2023/05/22 05:03:27;;;;;;;9.20;8.27;;;18.10;93.70;;;;;;5131149;28;20445;-66
2023/05/22 05:05:54;;;;;;;9.53;7.27;;;18.20;93.30;;;;;;5130655;28;20484;-64
2023/05/22 05:08:20;;;;;;;8.63;7.93;;;18.30;93.00;;;;;;5130254;28;20813;-65
2023/05/22 05:10:47;;;;;;;8.90;8.00;;;18.40;92.40;;;;;;5130934;27;20495;-65
2023/05/22 05:13:14;;;;;;;10.80;8.17;;;18.40;92.00;;;;;;5130136;28;20957;-66
2023/05/22 05:15:41;;;;;;;8.13;7.33;;;18.50;91.60;;;;;;5130412;28;20448;-66
2023/05/22 05:18:07;;;;;;;8.73;7.93;;;18.50;91.00;;;;;;5130549;28;20445;-66
2023/05/22 05:20:36;;;;;;;8.13;7.30;;;18.50;90.60;;;;;;5130383;27;20993;-66
2023/05/22 05:23:02;;;;;;;9.07;7.27;;;18.60;90.30;;;;;;5117196;28;20546;-66
2023/05/22 05:25:29;;;;;;;9.30;7.63;;;18.60;90.20;;;;;;5118717;28;20464;-65
2023/05/22 05:27:56;;;;;;;7.90;7.17;;;18.70;89.80;;;;;;5119808;28;20449;-65
2023/05/22 05:30:23;;;;;;;8.53;6.80;;;18.80;89.00;;;;;;5119968;28;20481;-65
2023/05/22 05:32:50;;;;;;;7.70;6.90;;;18.90;87.90;;;;;;5119248;28;20957;-66
2023/05/22 05:35:16;;;;;;;8.80;8.00;;;19.00;86.80;;;;;;5119680;28;21118;-65
2023/05/22 05:37:44;;;;;;;13.43;7.57;;;19.10;85.80;;;;;;5119627;28;20449;-65
2023/05/22 05:40:12;;;;;;;7.67;6.93;;;19.10;85.10;;;;;;5119166;28;20433;-66
2023/05/22 05:42:39;;;;;;;8.03;7.23;;;19.20;84.10;;;;;;5118228;28;20445;-66
2023/05/22 05:45:07;;;;;;;7.57;6.77;;;19.30;83.20;;;;;;5116614;28;20444;-65
2023/05/22 05:47:33;;;;;;;7.27;6.67;;;19.30;82.50;;;;;;5116127;28;20449;-66
2023/05/22 05:50:00;;;;;;;11.03;7.63;;;19.40;82.00;;;;;;5116266;28;20938;-67
2023/05/22 05:52:31;;;;;;;9.33;7.53;;;19.40;81.50;;;;;;5116717;28;20834;-67
2023/05/22 05:54:59;;;;;;;7.23;6.53;;;19.50;80.90;;;;;;5116992;28;20421;-66
2023/05/22 05:57:26;;;;;;;7.83;7.10;;;19.50;80.30;;;;;;5116578;28;20517;-66
2023/05/22 05:59:53;;;;;;;8.80;7.90;;;19.60;79.90;;;;;;5116711;28;20510;-66
2023/05/22 06:02:20;;;;;;;11.90;8.37;;;19.70;79.60;;;;;;5115958;28;20465;-66
2023/05/22 06:04:47;;;;;;;8.40;7.60;;;19.80;78.90;;;;;;5115888;28;20978;-66
2023/05/22 06:07:14;;;;;;;8.83;7.80;;;19.90;77.50;;;;;;5116109;28;20476;-67
2023/05/22 06:09:41;;;;;;;10.17;7.27;;;20.00;77.80;;;;;;5115668;28;20449;-67
2023/05/22 06:12:11;;;;;;;8.33;7.60;;;20.10;76.70;;;;;;5115388;28;21025;-67
2023/05/22 06:14:38;;;;;;;12.43;6.47;;;20.10;75.80;;;;;;5115574;28;20428;-67
2023/05/22 06:17:07;;;;;;;11.47;6.73;;;20.20;75.10;;;;;;5115497;28;20446;-66
2023/05/22 06:19:34;;;;;;;7.43;6.73;;;20.30;74.80;;;;;;5115558;28;20465;-67
2023/05/22 06:22:01;;;;;;;8.20;7.43;;;20.40;74.30;;;;;;5115211;28;20462;-68
2023/05/22 06:24:27;;;;;;;7.87;7.00;;;20.60;73.30;;;;;;5115540;28;20451;-67
2023/05/22 06:26:54;;;;;;;7.97;7.07;;;20.70;72.30;;;;;;5115399;28;20446;-67
2023/05/22 06:29:22;;;;;;;7.80;7.10;;;20.80;71.20;;;;;;5115598;28;20447;-67
2023/05/22 06:31:49;;;;;;;8.27;7.40;;;20.70;70.60;;;;;;5115399;28;20483;-67
2023/05/22 06:34:16;;;;;;;8.37;6.80;;;20.70;70.50;;;;;;5114620;28;20447;-67
2023/05/22 06:36:44;;;;;;;7.57;6.77;;;20.70;70.20;;;;;;5115455;28;20459;-67
2023/05/22 06:39:11;;;;;;;7.27;6.47;;;20.80;69.90;;;;;;5114819;28;20936;-65
2023/05/22 06:41:38;;;;;;;8.10;6.77;;;20.80;69.80;;;;;;5115892;28;20474;-67
2023/05/22 06:44:05;;;;;;;7.30;6.53;;;20.90;69.50;;;;;;5115986;28;20444;-66
2023/05/22 06:46:33;;;;;;;8.73;7.60;;;21.00;69.00;;;;;;5115705;28;20945;-67
2023/05/22 06:49:00;;;;;;;7.30;6.60;;;21.20;68.70;;;;;;5115753;28;20450;-67
2023/05/22 06:51:28;;;;;;;8.37;6.53;;;21.40;67.70;;;;;;5115134;28;20498;-66
2023/05/22 06:53:55;;;;;;;10.53;7.00;;;21.50;67.10;;;;;;5115005;28;20972;-67
2023/05/22 06:56:23;;;;;;;7.30;6.60;;;21.70;66.50;;;;;;5115020;28;20452;-67
2023/05/22 06:58:50;;;;;;;10.87;6.40;;;21.80;66.00;;;;;;5114850;28;20451;-66
2023/05/22 07:01:17;;;;;;;10.30;7.37;;;21.80;65.60;;;;;;5114669;28;20469;-65
2023/05/22 07:03:45;;;;;;;7.97;6.20;;;22.00;65.40;;;;;;5114455;28;20540;-66
2023/05/22 07:06:12;;;;;;;8.53;7.37;;;22.10;64.80;;;;;;5114442;28;20455;-67
2023/05/22 07:08:38;;;;;;;7.97;6.97;;;22.00;64.30;;;;;;5114107;28;20941;-67
2023/05/22 07:11:07;;;;;;;8.90;8.00;;;21.90;64.40;;;;;;5115250;28;20487;-66
2023/05/22 07:13:35;;;;;;;7.23;6.23;;;21.80;65.30;;;;;;5116899;28;20441;-67
2023/05/22 07:16:02;;;;;;;8.37;7.50;;;21.70;64.80;;;;;;5116613;28;20475;-66
2023/05/22 07:18:28;;;;;;;8.00;7.07;;;21.80;65.10;;;;;;5117760;28;20452;-67
2023/05/22 07:20:56;;;;;;;10.23;7.73;;;21.90;64.90;;;;;;5119746;28;20460;-68
2023/05/22 07:23:23;;;;;;;9.33;8.43;;;22.10;64.40;;;;;;5118808;28;20441;-66
2023/05/22 07:25:50;;;;;;;7.80;7.03;;;22.20;64.00;;;;;;5120100;28;20453;-66
2023/05/22 07:28:17;;;;;;;9.07;7.13;;;22.30;63.60;;;;;;5119099;28;20449;-67
2023/05/22 07:30:44;;;;;;;8.60;7.20;;;22.50;63.50;;;;;;5119299;28;20480;-66
2023/05/22 07:33:11;;;;;;;8.37;7.20;;;22.60;63.20;;;;;;5120098;28;20552;-66
2023/05/22 07:35:38;;;;;;;6.93;6.23;;;22.60;62.80;;;;;;5119767;28;20441;-66
2023/05/22 07:38:06;;;;;;;8.10;7.30;;;22.70;62.70;;;;;;5119120;28;20455;-66
2023/05/22 07:40:32;;;;;;;10.90;7.30;;;22.60;62.60;;;;;;5119007;28;20476;-67
2023/05/22 07:42:59;;;;;;;11.20;7.57;;;22.60;62.70;;;;;;5117981;28;20444;-67
2023/05/22 07:45:26;;;;;;;7.53;6.83;;;22.80;62.80;;;;;;5114821;28;20447;-68
2023/05/22 07:47:53;;;;;;;7.87;7.17;;;23.00;62.50;;;;;;5115726;28;20529;-67
2023/05/22 07:50:20;;;;;;;8.43;7.63;;;23.20;61.70;;;;;;5115716;28;20441;-67
2023/05/22 07:52:47;;;;;;;7.30;6.70;;;23.30;61.30;;;;;;5116245;28;20567;-66
2023/05/22 07:55:15;;;;;;;8.17;7.37;;;23.50;60.80;;;;;;5116451;28;20827;-67
2023/05/22 07:57:42;;;;;;;7.57;6.87;;;23.50;60.50;;;;;;5116287;28;20525;-67
2023/05/22 08:00:12;;;;;;;7.87;7.03;;;23.60;60.40;;;;;;5116034;28;20940;-66
2023/05/22 08:02:39;;;;;;;8.20;7.40;;;23.60;60.30;;;;;;5116442;28;20446;-67
2023/05/22 08:05:08;;;;;;;8.20;7.33;;;23.60;60.20;;;;;;5117610;28;20458;-67
2023/05/22 08:07:35;;;;;;;7.80;6.97;;;23.60;60.40;;;;;;5116040;28;20443;-67
2023/05/22 08:10:03;;;;;;;10.33;8.20;;;23.50;60.50;;;;;;5117075;28;20954;-67
2023/05/22 08:12:31;;;;;;;8.73;7.83;;;23.50;60.70;;;;;;5118141;28;20995;-67
2023/05/22 08:14:58;;;;;;;7.20;6.43;;;23.60;60.60;;;;;;5116084;28;20441;-67
2023/05/22 08:17:25;;;;;;;8.50;7.60;;;23.70;60.30;;;;;;5116120;28;20812;-67
2023/05/22 08:19:52;;;;;;;7.77;6.97;;;23.80;60.10;;;;;;5115611;28;20944;-67
2023/05/22 08:22:18;;;;;;;6.77;6.17;;;23.90;59.80;;;;;;5116039;28;21056;-67
2023/05/22 08:24:45;;;;;;;7.67;6.97;;;24.10;59.60;;;;;;5114965;28;20455;-68
2023/05/22 08:27:12;;;;;;;10.13;6.03;;;24.20;59.90;;;;;;5115923;28;20444;-67
2023/05/22 08:29:40;;;;;;;7.77;6.90;;;24.30;59.10;;;;;;5115663;28;20964;-67
2023/05/22 08:32:07;;;;;;;9.23;6.77;;;24.50;58.90;;;;;;5116066;28;20483;-67
2023/05/22 08:34:34;;;;;;;9.23;8.27;;;24.70;58.60;;;;;;5116008;28;20454;-67
2023/05/22 08:37:01;;;;;;;8.40;7.07;;;24.80;58.20;;;;;;5116051;28;20972;-67
2023/05/22 08:39:28;;;;;;;12.13;7.90;;;24.90;57.90;;;;;;5116022;28;20919;-66
2023/05/22 08:41:55;;;;;;;10.80;7.77;;;25.00;57.50;;;;;;5116129;28;20457;-67
2023/05/22 08:44:23;;;;;;;11.00;7.00;;;25.10;57.40;;;;;;5115255;28;20903;-66
2023/05/22 08:46:52;;;;;;;7.80;7.10;;;25.30;57.20;;;;;;5113691;28;20829;-67
2023/05/22 08:49:21;;;;;;;8.60;7.70;;;25.30;56.90;;;;;;5113308;28;20447;-67
2023/05/22 08:51:54;;;;;;;9.00;7.20;;;25.50;56.70;;;;;;5113067;28;20482;-66
2023/05/22 08:54:22;;;;;;;8.37;7.57;;;25.50;56.30;;;;;;5112760;28;20530;-67
2023/05/22 08:56:51;;;;;;;9.17;7.80;;;25.50;56.20;;;;;;5114226;28;20445;-67
2023/05/22 08:59:19;;;;;;;7.83;7.23;;;25.70;56.20;;;;;;5116941;28;21011;-67
2023/05/22 09:01:46;;;;;;;11.03;7.90;;;25.80;55.80;;;;;;5116389;28;20835;-67
2023/05/22 09:04:15;;;;;;;8.00;6.53;;;25.90;55.60;;;;;;5116720;28;20442;-66
2023/05/22 09:06:42;;;;;;;7.37;6.77;;;26.00;55.40;;;;;;5116732;28;20493;-66
2023/05/22 09:09:09;;;;;;;7.77;7.00;;;25.90;55.40;;;;;;5116529;28;20444;-66
2023/05/22 09:11:36;;;;;;;7.57;6.27;;;25.90;55.30;;;;;;5116315;28;20481;-67
2023/05/22 09:14:10;;;;;;;8.40;7.47;;;25.90;55.40;;;;;;5116712;28;20473;-67
2023/05/22 09:16:45;;;;;;;7.30;6.70;;;25.90;55.30;;;;;;5116577;28;20510;-67
2023/05/22 09:19:13;;;;;;;8.03;7.23;;;26.00;55.70;;;;;;5116959;28;20743;-67
2023/05/22 09:21:43;;;;;;;8.03;7.30;;;26.00;54.90;;;;;;5116099;28;20463;-67
2023/05/22 09:24:10;;;;;;;7.40;6.70;;;26.10;54.60;;;;;;5115854;28;20450;-66
2023/05/22 09:26:38;;;;;;;8.33;7.10;;;26.10;54.50;;;;;;5116473;28;20436;-66
2023/05/22 09:29:06;;;;;;;8.47;6.80;;;26.30;54.20;;;;;;5116012;28;20472;-67
2023/05/22 09:31:38;;;;;;;8.40;7.40;;;26.50;53.80;;;;;;5116536;28;20487;-66
2023/05/22 09:34:05;;;;;;;7.50;6.77;;;26.60;53.20;;;;;;5115967;28;20431;-66
2023/05/22 09:36:32;;;;;;;8.33;6.97;;;26.70;52.80;;;;;;5115638;28;20963;-66
2023/05/22 09:39:02;;;;;;;7.80;6.93;;;26.80;52.50;;;;;;5116055;28;20444;-66
2023/05/22 09:41:33;;;;;;;8.53;7.63;;;26.80;52.10;;;;;;5116051;28;20465;-68
2023/05/22 09:44:00;;;;;;;8.80;7.50;;;26.80;52.20;;;;;;5116192;28;20440;-66
2023/05/22 09:46:27;;;;;;;8.70;6.87;;;26.90;52.20;;;;;;5118485;28;20443;-68
2023/05/22 09:48:53;;;;;;;7.63;6.93;;;27.00;52.00;;;;;;5116214;28;20543;-67
2023/05/22 09:51:22;;;;;;;9.80;8.80;;;27.00;51.90;;;;;;5115698;28;20856;-68
2023/05/22 09:53:50;;;;;;;9.37;7.77;;;26.90;52.10;;;;;;5115717;28;20455;-67
2023/05/22 09:56:22;;;;;;;8.37;7.67;;;26.80;52.30;;;;;;5115425;28;20875;-66
2023/05/22 09:58:51;;;;;;;9.47;8.67;;;26.90;52.60;;;;;;5115606;28;20503;-66
2023/05/22 10:01:21;;;;;;;10.53;9.43;;;26.90;52.30;;;;;;5115483;28;20483;-66
2023/05/22 10:03:50;;;;;;;7.80;7.10;;;26.90;52.00;;;;;;5115454;28;21002;-67
2023/05/22 10:06:19;;;;;;;9.53;8.20;;;27.00;52.00;;;;;;5115616;28;20857;-66
2023/05/22 10:08:53;;;;;;;10.00;8.50;;;27.10;51.80;;;;;;5115882;28;20448;-64
2023/05/22 10:11:22;;;;;;;8.50;7.70;;;27.20;51.40;;;;;;5115546;28;20484;-66
2023/05/22 10:13:50;;;;;;;7.90;7.10;;;27.20;51.30;;;;;;5115658;28;20471;-68
2023/05/22 10:16:17;;;;;;;7.67;6.87;;;27.30;51.20;;;;;;5115397;28;20474;-66
2023/05/22 10:18:47;;;;;;;7.53;6.83;;;27.40;50.90;;;;;;5114911;28;21040;-66
2023/05/22 10:21:16;;;;;;;7.20;6.60;;;27.40;50.90;;;;;;5115948;28;20466;-66
2023/05/22 10:23:43;;;;;;;10.27;7.23;;;27.50;50.60;;;;;;5114438;28;20916;-66
2023/05/22 10:26:11;;;;;;;11.67;6.70;;;27.60;50.30;;;;;;5114942;28;20457;-67
2023/05/22 10:28:43;;;;;;;7.73;6.93;;;27.80;50.00;;;;;;5116706;28;20442;-69
2023/05/22 10:31:19;;;;;;;8.13;7.33;;;27.90;49.60;;;;;;5118606;28;20530;-68
2023/05/22 10:33:51;;;;;;;8.80;6.77;;;28.00;49.40;;;;;;5115562;28;20423;-66
2023/05/22 10:36:30;;;;;;;7.70;6.97;;;28.10;49.30;;;;;;5115628;28;20459;-70
2023/05/22 10:39:08;;;;;;;7.67;7.07;;;28.10;49.30;;;;;;5114819;28;20443;-69
2023/05/22 10:41:35;;;;;;;7.20;6.57;;;28.20;49.10;;;;;;5115026;28;20466;-68
2023/05/22 10:44:04;;;;;;;8.20;7.00;;;28.20;49.10;;;;;;5115171;28;20469;-68
2023/05/22 10:46:33;;;;;;;8.30;7.60;;;28.30;49.00;;;;;;5114833;28;20534;-68
2023/05/22 10:49:00;;;;;;;6.97;6.37;;;28.20;48.90;;;;;;5114843;28;20820;-67
2023/05/22 10:51:27;;;;;;;6.97;6.37;;;28.20;48.90;;;;;;5115132;28;20467;-67
2023/05/22 10:53:59;;;;;;;7.60;6.87;;;28.10;49.20;;;;;;5115123;28;20854;-67
2023/05/22 10:56:34;;;;;;;8.70;7.90;;;28.20;49.20;;;;;;5115329;28;20969;-67
2023/05/22 10:59:06;;;;;;;7.57;6.73;;;28.30;48.90;;;;;;5115151;28;20481;-68
2023/05/22 11:01:36;;;;;;;8.20;7.40;;;28.20;48.90;;;;;;5114371;28;20470;-67
2023/05/22 11:04:11;;;;;;;9.87;6.67;;;28.20;49.20;;;;;;5115472;28;20447;-67
2023/05/22 11:06:39;;;;;;;9.53;8.17;;;28.20;49.10;;;;;;5114549;28;20431;-67
2023/05/22 11:09:29;;;;;;;8.90;7.20;;;28.20;49.10;;;;;;5114697;28;20550;-66
2023/05/22 11:12:25;;;;;;;8.60;7.80;;;28.30;49.00;;;;;;5114524;28;20492;-67
2023/05/22 11:14:56;;;;;;;8.67;6.73;;;28.40;48.80;;;;;;5078931;28;20450;-67
2023/05/22 11:17:24;;;;;;;8.37;7.57;;;28.40;48.90;;;;;;5114309;28;20421;-67
2023/05/22 11:19:59;;;;;;;7.37;6.77;;;28.40;49.00;;;;;;5114092;28;20786;-67
2023/05/22 11:22:37;;;;;;;7.43;6.63;;;28.50;48.90;;;;;;5114740;28;20850;-67
2023/05/22 11:25:10;;;;;;;7.73;7.03;;;28.70;48.70;;;;;;5114346;28;20435;-67
2023/05/22 11:27:38;;;;;;;8.50;7.57;;;28.90;48.50;;;;;;5114451;28;20524;-67
2023/05/22 11:30:09;;;;;;;7.80;7.00;;;28.90;48.20;;;;;;5114749;28;20444;-67
2023/05/22 11:32:36;;;;;;;7.90;7.20;;;29.00;47.90;;;;;;5120144;28;20476;-67
2023/05/22 11:35:04;;;;;;;7.57;6.87;;;29.00;47.80;;;;;;5117170;28;20937;-66
2023/05/22 11:37:31;;;;;;;7.60;6.93;;;29.00;47.60;;;;;;5114002;28;20450;-68
2023/05/22 11:40:02;;;;;;;7.80;7.00;;;29.00;47.60;;;;;;5113982;28;20822;-66
2023/05/22 11:42:29;;;;;;;8.37;7.73;;;29.00;47.60;;;;;;5113777;28;20450;-68
2023/05/22 11:44:56;;;;;;;7.27;6.67;;;29.00;47.70;;;;;;5113556;28;21009;-67
2023/05/22 11:47:25;;;;;;;7.90;6.50;;;28.90;47.80;;;;;;5114271;28;20443;-67
2023/05/22 11:49:53;;;;;;;7.83;7.10;;;29.10;47.60;;;;;;5114278;28;20443;-67
2023/05/22 11:52:20;;;;;;;8.10;7.30;;;29.20;47.10;;;;;;5113868;28;20854;-67
2023/05/22 11:54:47;;;;;;;8.20;7.40;;;29.60;46.60;;;;;;5113723;28;20447;-67
2023/05/22 11:57:14;;;;;;;8.53;7.83;;;30.10;45.70;;;;;;5114077;28;20446;-67
2023/05/22 11:59:45;;;;;;;8.93;7.73;;;30.50;44.80;;;;;;5113747;28;20441;-66
2023/05/22 12:02:12;;;;;;;7.43;6.70;;;30.80;44.10;;;;;;5114064;28;20464;-67
2023/05/22 12:04:40;;;;;;;8.87;7.03;;;31.10;43.50;;;;;;5113781;28;20439;-68
2023/05/22 12:07:08;;;;;;;7.60;7.00;;;31.40;42.60;;;;;;5113771;28;20438;-68
2023/05/22 12:09:35;;;;;;;7.77;6.97;;;31.50;42.40;;;;;;5113381;28;20443;-68
2023/05/22 12:12:01;;;;;;;8.00;7.30;;;31.70;42.30;;;;;;5115403;28;20468;-66
2023/05/22 12:14:30;;;;;;;7.40;6.60;;;31.90;42.10;;;;;;5114996;28;20533;-67
2023/05/22 12:16:58;;;;;;;8.50;7.70;;;32.10;41.80;;;;;;5114184;28;20459;-67
2023/05/22 12:19:25;;;;;;;8.53;6.80;;;32.10;41.40;;;;;;5114035;28;20446;-67
2023/05/22 12:21:54;;;;;;;9.87;7.30;;;32.10;41.30;;;;;;5115037;28;20465;-66
2023/05/22 12:24:22;;;;;;;8.23;7.13;;;32.20;41.10;;;;;;5116116;28;20434;-66
2023/05/22 12:26:53;;;;;;;8.40;7.70;;;32.40;41.00;;;;;;5115352;28;20483;-67
2023/05/22 12:29:22;;;;;;;7.80;7.10;;;32.50;41.20;;;;;;5117124;28;20457;-67
2023/05/22 12:31:48;;;;;;;7.97;7.00;;;32.40;40.60;;;;;;5120017;28;20459;-66
2023/05/22 12:34:17;;;;;;;8.10;7.30;;;32.20;41.00;;;;;;5123234;28;20919;-67
2023/05/22 12:36:45;;;;;;;6.77;6.07;;;31.80;41.20;;;;;;5123807;28;20443;-68
2023/05/22 12:39:16;;;;;;;7.20;6.50;;;31.50;41.60;;;;;;5123046;28;20847;-68
2023/05/22 12:41:44;;;;;;;8.07;7.37;;;31.10;42.00;;;;;;5124545;27;20493;-66
2023/05/22 12:44:11;;;;;;;7.50;6.70;;;30.80;42.50;;;;;;5123532;28;20444;-68
2023/05/22 12:46:38;;;;;;;8.33;7.60;;;30.60;42.90;;;;;;5120503;28;20739;-67
2023/05/22 12:49:08;;;;;;;7.90;6.47;;;30.40;43.30;;;;;;5117864;28;20442;-68
2023/05/22 12:51:35;;;;;;;7.43;6.73;;;30.30;43.50;;;;;;5117648;28;20459;-68